createdAt,value
2017-12-20T00:01:20.119Z,14.50
2017-12-20T00:03:47.727Z,16.10
2017-12-20T00:06:15.355Z,14.83
2017-12-20T00:08:42.958Z,15.13
2017-12-20T00:11:10.572Z,14.80
2017-12-20T00:13:38.177Z,16.07
2017-12-20T00:16:09.142Z,15.00
2017-12-20T00:18:37.537Z,14.40
2017-12-20T00:21:05.153Z,14.40
2017-12-20T00:23:32.770Z,14.10
2017-12-20T00:26:00.377Z,13.53
2017-12-20T00:28:27.982Z,14.20
2017-12-20T00:30:55.603Z,13.33
2017-12-20T00:33:23.205Z,14.00
2017-12-20T00:35:50.802Z,13.57
2017-12-20T00:38:18.404Z,13.93
2017-12-20T00:40:46.767Z,13.47
2017-12-20T00:43:14.402Z,12.70
2017-12-20T00:45:41.997Z,13.23
2017-12-20T00:48:10.378Z,13.37
2017-12-20T00:50:38.739Z,14.10
2017-12-20T00:53:06.351Z,12.90
2017-12-20T00:55:33.960Z,12.57
2017-12-20T00:58:01.562Z,12.40
2017-12-20T01:00:29.181Z,13.33
2017-12-20T01:03:20.323Z,12.83
2017-12-20T01:05:48.710Z,12.90
2017-12-20T01:08:17.099Z,12.00
2017-12-20T01:10:44.694Z,13.47
2017-12-20T01:13:12.285Z,11.83
2017-12-20T01:15:39.866Z,12.60
2017-12-20T01:18:08.230Z,11.47
2017-12-20T01:20:35.837Z,12.43
2017-12-20T01:23:03.422Z,11.30
2017-12-20T01:25:31.776Z,11.37
2017-12-20T01:27:59.384Z,11.60
2017-12-20T01:30:26.987Z,12.00
2017-12-20T01:32:54.612Z,11.50
2017-12-20T01:35:22.210Z,11.90
2017-12-20T01:37:49.800Z,12.23
2017-12-20T01:40:17.417Z,12.20
2017-12-20T01:42:45.806Z,11.73
2017-12-20T01:45:13.432Z,11.63
2017-12-20T01:47:41.022Z,10.93
2017-12-20T01:50:09.393Z,12.37
2017-12-20T01:52:37.760Z,12.17
2017-12-20T01:55:05.374Z,12.50
2017-12-20T01:57:33.009Z,11.57
2017-12-20T02:00:00.617Z,11.80
2017-12-20T02:02:28.205Z,12.53
2017-12-20T02:04:55.793Z,11.93
2017-12-20T02:07:23.382Z,11.50
2017-12-20T02:09:50.993Z,11.50
2017-12-20T02:12:19.376Z,11.80
2017-12-20T02:14:47.738Z,13.00
2017-12-20T02:17:15.337Z,12.83
2017-12-20T02:19:42.924Z,12.23
2017-12-20T02:22:10.535Z,11.07
2017-12-20T02:24:38.919Z,12.10
2017-12-20T02:27:07.288Z,11.93
2017-12-20T02:29:35.671Z,11.40
2017-12-20T02:32:04.028Z,13.00
2017-12-20T02:34:31.661Z,12.43
2017-12-20T02:36:59.263Z,13.87
2017-12-20T02:39:26.857Z,12.43
2017-12-20T02:41:54.462Z,13.50
2017-12-20T02:44:22.048Z,10.90
2017-12-20T02:46:49.688Z,9.57
2017-12-20T02:49:17.295Z,10.10
2017-12-20T02:51:45.649Z,9.80
2017-12-20T02:54:13.280Z,9.90
2017-12-20T02:56:40.873Z,10.33
2017-12-20T02:59:08.501Z,9.90
2017-12-20T03:01:36.089Z,8.10
2017-12-20T03:04:03.698Z,9.10
2017-12-20T03:06:31.320Z,8.50
2017-12-20T03:08:58.916Z,8.87
2017-12-20T03:11:26.568Z,9.27
2017-12-20T03:13:54.150Z,8.60
2017-12-20T03:16:21.751Z,8.80
2017-12-20T03:18:49.345Z,9.03
2017-12-20T03:21:17.707Z,9.43
2017-12-20T03:23:46.101Z,9.53
2017-12-20T03:26:14.467Z,10.40
2017-12-20T03:28:42.825Z,10.50
2017-12-20T03:31:10.423Z,12.70
2017-12-20T03:33:38.824Z,11.33
2017-12-20T03:36:06.442Z,11.30
2017-12-20T03:38:34.041Z,10.63
2017-12-20T03:41:01.628Z,11.10
2017-12-20T03:43:29.234Z,10.80
2017-12-20T03:45:57.596Z,10.30
2017-12-20T03:48:25.223Z,10.60
2017-12-20T03:50:52.839Z,10.30
2017-12-20T03:53:21.222Z,11.13
2017-12-20T03:55:49.581Z,10.47
2017-12-20T03:58:17.166Z,10.57
2017-12-20T04:00:44.780Z,11.10
2017-12-20T04:03:12.370Z,10.30
2017-12-20T04:05:39.965Z,10.30
2017-12-20T04:08:07.551Z,10.80
2017-12-20T04:10:35.134Z,10.90
2017-12-20T04:13:02.753Z,10.90
2017-12-20T04:15:30.341Z,9.87
2017-12-20T04:17:57.936Z,12.00
2017-12-20T04:20:25.555Z,11.27
2017-12-20T04:22:53.156Z,12.57
2017-12-20T04:25:20.777Z,11.57
2017-12-20T04:27:48.376Z,10.90
2017-12-20T04:30:15.974Z,12.17
2017-12-20T04:32:43.570Z,11.77
2017-12-20T04:35:11.179Z,11.30
2017-12-20T04:37:38.819Z,12.27
2017-12-20T04:40:06.427Z,12.20
2017-12-20T04:42:34.027Z,10.27
2017-12-20T04:45:01.631Z,10.90
2017-12-20T04:47:30.044Z,12.00
2017-12-20T04:49:57.664Z,10.70
2017-12-20T04:52:26.032Z,11.87
2017-12-20T04:54:53.620Z,12.47
2017-12-20T04:57:21.227Z,10.73
2017-12-20T04:59:48.841Z,11.43
2017-12-20T05:02:16.457Z,11.23
2017-12-20T05:04:44.064Z,11.13
2017-12-20T05:07:11.669Z,10.03
2017-12-20T05:09:39.258Z,10.20
2017-12-20T05:12:07.640Z,11.33
2017-12-20T05:14:36.056Z,10.70
2017-12-20T05:17:03.678Z,11.00
2017-12-20T05:19:31.281Z,10.07
2017-12-20T05:21:59.533Z,11.17
2017-12-20T05:24:28.091Z,12.40
2017-12-20T05:26:55.704Z,11.47
2017-12-20T05:29:23.289Z,11.73
2017-12-20T05:31:50.873Z,12.27
2017-12-20T05:34:28.238Z,12.73
2017-12-20T05:36:55.855Z,12.77
2017-12-20T05:39:24.241Z,11.13
2017-12-20T05:41:51.885Z,11.87
2017-12-20T05:44:20.245Z,11.60
2017-12-20T05:46:47.847Z,11.47
2017-12-20T05:49:15.445Z,11.67
2017-12-20T05:51:43.065Z,11.73
2017-12-20T05:54:10.661Z,11.13
2017-12-20T05:56:38.264Z,11.17
2017-12-20T05:59:06.632Z,9.87
2017-12-20T06:01:34.232Z,10.73
2017-12-20T06:04:06.498Z,11.70
2017-12-20T06:06:34.106Z,11.23
2017-12-20T06:09:01.701Z,13.93
2017-12-20T06:11:30.071Z,11.80
2017-12-20T06:13:57.688Z,11.20
2017-12-20T06:16:25.323Z,11.50
2017-12-20T06:18:52.930Z,11.37
2017-12-20T06:21:20.519Z,11.13
2017-12-20T06:23:48.886Z,11.80
2017-12-20T06:26:16.494Z,10.20
2017-12-20T06:28:44.122Z,9.70
2017-12-20T06:31:12.503Z,11.07
2017-12-20T06:33:40.090Z,9.60
2017-12-20T06:36:07.719Z,10.27
2017-12-20T06:38:35.342Z,10.40
2017-12-20T06:41:02.979Z,10.10
2017-12-20T06:43:30.593Z,9.30
2017-12-20T06:45:58.200Z,9.10
2017-12-20T06:48:25.811Z,9.73
2017-12-20T06:50:53.424Z,9.07
2017-12-20T06:53:21.032Z,9.40
2017-12-20T06:55:48.642Z,10.47
2017-12-20T06:58:16.251Z,9.90
2017-12-20T07:00:43.879Z,10.53
2017-12-20T07:03:11.481Z,9.57
2017-12-20T07:05:39.096Z,10.53
2017-12-20T07:08:06.686Z,9.03
2017-12-20T07:10:34.287Z,8.97
2017-12-20T07:13:01.944Z,9.33
2017-12-20T07:15:30.350Z,9.60
2017-12-20T07:17:57.968Z,8.60
2017-12-20T07:23:18.356Z,8.83
2017-12-20T07:25:45.946Z,8.47
2017-12-20T07:28:13.558Z,8.50
2017-12-20T07:30:41.157Z,9.50
2017-12-20T07:33:08.747Z,8.00
2017-12-20T07:35:37.157Z,9.10
2017-12-20T07:38:04.761Z,8.60
2017-12-20T07:40:32.402Z,8.90
2017-12-20T07:42:59.990Z,8.30
2017-12-20T07:45:27.596Z,9.73
2017-12-20T07:47:55.217Z,9.50
2017-12-20T07:50:22.796Z,8.40
2017-12-20T07:52:51.171Z,8.80
2017-12-20T07:55:18.753Z,11.97
2017-12-20T07:57:46.347Z,9.63
2017-12-20T08:00:13.979Z,10.80
2017-12-20T08:02:41.589Z,8.40
2017-12-20T08:05:09.207Z,9.27
2017-12-20T08:07:36.802Z,8.13
2017-12-20T08:10:04.396Z,8.87
2017-12-20T08:12:32.073Z,8.97
2017-12-20T08:15:00.446Z,17.10
2017-12-20T08:17:28.802Z,17.17
2017-12-20T08:19:56.399Z,12.40
2017-12-20T08:22:24.015Z,13.57
2017-12-20T08:24:51.626Z,11.00
2017-12-20T08:27:19.230Z,9.57
2017-12-20T08:29:46.831Z,12.07
2017-12-20T08:32:15.227Z,9.93
2017-12-20T08:34:42.851Z,9.63
2017-12-20T08:37:10.492Z,10.30
2017-12-20T08:39:38.095Z,9.40
2017-12-20T08:42:06.464Z,9.73
2017-12-20T08:44:34.059Z,8.97
2017-12-20T08:47:01.670Z,9.07
2017-12-20T08:49:29.291Z,10.20
2017-12-20T08:51:56.910Z,8.63
2017-12-20T08:54:24.594Z,9.30
2017-12-20T08:56:52.952Z,9.30
2017-12-20T08:59:20.545Z,9.40
2017-12-20T09:01:48.131Z,8.20
2017-12-20T09:04:15.740Z,8.73
2017-12-20T09:06:44.151Z,8.90
2017-12-20T09:09:11.747Z,6.30
2017-12-20T09:11:39.364Z,6.40
2017-12-20T09:14:06.966Z,7.37
2017-12-20T09:16:34.570Z,6.97
2017-12-20T09:19:03.192Z,7.73
2017-12-20T09:21:30.914Z,7.70
2017-12-20T09:23:59.279Z,7.70
2017-12-20T09:26:26.874Z,7.23
2017-12-20T09:28:54.455Z,6.83
2017-12-20T09:31:22.056Z,6.40
2017-12-20T09:33:49.666Z,6.60
2017-12-20T09:36:17.264Z,7.23
2017-12-20T09:38:44.866Z,5.87
2017-12-20T09:41:13.243Z,7.40
2017-12-20T09:43:41.607Z,7.90
2017-12-20T09:46:09.201Z,8.47
2017-12-20T09:48:36.803Z,7.37
2017-12-20T09:51:04.376Z,7.57
2017-12-20T09:53:31.991Z,8.20
2017-12-20T09:55:59.587Z,8.23
2017-12-20T09:58:27.199Z,7.20
2017-12-20T10:00:54.827Z,8.07
2017-12-20T10:03:22.436Z,8.30
2017-12-20T10:05:50.061Z,8.57
2017-12-20T10:08:17.681Z,9.70
2017-12-20T10:10:45.284Z,8.97
2017-12-20T10:13:12.908Z,9.00
2017-12-20T10:15:40.510Z,10.07
2017-12-20T10:18:11.963Z,8.37
2017-12-20T10:20:39.554Z,7.63
2017-12-20T10:23:07.150Z,8.47
2017-12-20T10:25:34.751Z,8.27
2017-12-20T10:28:03.106Z,6.70
2017-12-20T10:30:30.718Z,7.47
2017-12-20T10:32:58.343Z,7.07
2017-12-20T10:35:25.951Z,6.23
2017-12-20T10:37:53.574Z,6.87
2017-12-20T10:40:21.953Z,6.30
2017-12-20T10:42:50.356Z,6.90
2017-12-20T10:45:18.101Z,6.77
2017-12-20T10:47:46.470Z,7.80
2017-12-20T10:50:14.062Z,6.07
2017-12-20T10:52:41.671Z,6.40
2017-12-20T10:55:09.300Z,6.27
2017-12-20T10:57:36.896Z,6.37
2017-12-20T11:00:04.512Z,6.73
2017-12-20T11:02:32.104Z,5.40
2017-12-20T11:04:59.695Z,6.10
2017-12-20T11:07:28.081Z,5.30
2017-12-20T11:09:56.466Z,5.60
2017-12-20T11:12:24.842Z,5.93
2017-12-20T11:14:53.236Z,5.50
2017-12-20T11:17:20.863Z,6.03
2017-12-20T11:19:48.514Z,5.57
2017-12-20T11:22:16.119Z,5.90
2017-12-20T11:24:44.473Z,6.07
2017-12-20T11:27:12.076Z,5.67
2017-12-20T11:29:45.692Z,5.03
2017-12-20T11:32:13.353Z,5.33
2017-12-20T11:34:40.954Z,5.00
2017-12-20T11:37:08.543Z,5.00
2017-12-20T11:39:36.145Z,4.43
2017-12-20T11:42:03.751Z,4.27
2017-12-20T11:44:32.160Z,3.50
2017-12-20T11:46:59.748Z,3.47
2017-12-20T11:49:27.353Z,3.53
2017-12-20T11:51:56.461Z,3.23
2017-12-20T11:54:25.400Z,3.30
2017-12-20T11:56:53.062Z,3.20
2017-12-20T11:59:20.673Z,3.33
2017-12-20T12:01:49.071Z,2.90
2017-12-20T12:04:16.656Z,2.63
2017-12-20T12:06:44.245Z,2.53
2017-12-20T12:09:12.726Z,2.17
2017-12-20T12:11:40.321Z,2.30
2017-12-20T12:14:08.663Z,2.17
2017-12-20T12:16:38.120Z,2.10
2017-12-20T12:19:05.699Z,2.30
2017-12-20T12:21:33.319Z,2.90
2017-12-20T12:24:01.681Z,4.00
2017-12-20T12:26:29.268Z,3.87
2017-12-20T12:28:57.662Z,3.13
2017-12-20T12:31:25.237Z,3.83
2017-12-20T12:33:52.902Z,3.77
2017-12-20T12:36:20.534Z,3.33
2017-12-20T12:38:48.895Z,3.30
2017-12-20T12:41:16.496Z,4.00
2017-12-20T12:43:44.094Z,3.30
2017-12-20T12:46:11.718Z,3.47
2017-12-20T12:48:39.371Z,3.10
2017-12-20T12:51:06.956Z,3.10
2017-12-20T12:53:34.540Z,4.00
2017-12-20T12:56:02.117Z,3.00
2017-12-20T12:58:29.743Z,2.60
2017-12-20T13:00:57.341Z,2.93
2017-12-20T13:03:24.956Z,2.37
2017-12-20T13:05:56.452Z,2.67
2017-12-20T13:08:24.059Z,2.40
2017-12-20T13:10:51.693Z,2.97
2017-12-20T13:13:20.061Z,3.30
2017-12-20T13:15:48.416Z,4.20
2017-12-20T13:18:16.025Z,7.70
2017-12-20T13:20:43.607Z,8.17
2017-12-20T13:23:11.238Z,7.10
2017-12-20T13:25:39.576Z,6.17
2017-12-20T13:28:07.164Z,4.93
2017-12-20T13:30:34.767Z,4.20
2017-12-20T13:33:02.410Z,3.40
2017-12-20T13:35:30.041Z,3.57
2017-12-20T13:37:57.631Z,3.27
2017-12-20T13:40:26.000Z,3.20
2017-12-20T13:42:54.359Z,4.03
2017-12-20T13:45:21.987Z,4.00
2017-12-20T13:47:49.610Z,3.80
2017-12-20T13:50:17.205Z,4.10
2017-12-20T13:52:44.815Z,5.20
2017-12-20T13:55:13.171Z,8.00
2017-12-20T13:57:40.773Z,7.37
2017-12-20T14:00:09.159Z,9.00
2017-12-20T14:02:36.757Z,8.10
2017-12-20T14:05:04.369Z,8.03
2017-12-20T14:07:32.719Z,7.87
2017-12-20T14:10:00.309Z,8.20
2017-12-20T14:12:28.696Z,7.90
2017-12-20T14:14:56.303Z,7.53
2017-12-20T14:17:23.914Z,6.67
2017-12-20T14:19:53.343Z,7.30
2017-12-20T14:22:20.987Z,6.70
2017-12-20T14:24:48.641Z,8.07
2017-12-20T14:27:16.998Z,7.17
2017-12-20T14:29:44.596Z,7.50
2017-12-20T14:32:12.193Z,7.23
2017-12-20T14:34:39.804Z,7.70
2017-12-20T14:37:08.182Z,8.10
2017-12-20T14:39:36.550Z,7.40
2017-12-20T14:42:04.900Z,8.30
2017-12-20T14:44:32.521Z,7.63
2017-12-20T14:47:01.045Z,7.33
2017-12-20T14:49:29.431Z,7.57
2017-12-20T14:51:57.028Z,7.53
2017-12-20T14:54:25.378Z,7.30
2017-12-20T14:56:52.988Z,7.60
2017-12-20T14:59:20.592Z,7.43
2017-12-20T15:01:48.948Z,8.70
2017-12-20T15:04:16.579Z,8.30
2017-12-20T15:06:44.171Z,9.27
2017-12-20T15:09:11.767Z,8.40
2017-12-20T15:11:39.379Z,8.70
2017-12-20T15:14:07.101Z,9.17
2017-12-20T15:16:36.813Z,8.80
2017-12-20T15:19:05.208Z,8.80
2017-12-20T15:21:33.587Z,9.07
2017-12-20T15:24:01.950Z,9.37
2017-12-20T15:26:30.349Z,10.13
2017-12-20T15:29:02.555Z,10.00
2017-12-20T15:31:30.184Z,9.27
2017-12-20T15:33:57.779Z,8.70
2017-12-20T15:36:25.375Z,9.00
2017-12-20T15:38:52.987Z,10.93
2017-12-20T15:41:20.582Z,9.43
2017-12-20T15:43:48.211Z,10.00
2017-12-20T15:46:15.812Z,11.23
2017-12-20T15:48:43.425Z,10.90
2017-12-20T15:51:11.036Z,10.80
2017-12-20T15:53:38.670Z,10.47
2017-12-20T15:56:06.315Z,10.30
2017-12-20T15:58:33.939Z,11.30
2017-12-20T16:01:02.305Z,10.63
2017-12-20T16:03:29.904Z,12.80
2017-12-20T16:05:57.515Z,11.93
2017-12-20T16:08:25.246Z,11.20
2017-12-20T16:10:52.847Z,10.83
2017-12-20T16:13:21.272Z,10.90
2017-12-20T16:15:48.925Z,11.63
2017-12-20T16:18:16.527Z,12.20
2017-12-20T16:20:44.157Z,11.27
2017-12-20T16:23:11.766Z,11.57
2017-12-20T16:25:39.362Z,11.57
2017-12-20T16:28:07.750Z,12.30
2017-12-20T16:30:36.115Z,10.77
2017-12-20T16:33:04.542Z,11.60
2017-12-20T16:35:32.182Z,9.67
2017-12-20T16:37:59.789Z,9.67
2017-12-20T16:40:27.407Z,9.90
2017-12-20T16:42:55.016Z,9.57
2017-12-20T16:45:22.699Z,9.20
2017-12-20T16:47:51.071Z,9.83
2017-12-20T16:50:18.678Z,9.50
2017-12-20T16:52:46.286Z,10.20
2017-12-20T16:55:13.873Z,10.90
2017-12-20T16:57:42.291Z,9.70
2017-12-20T17:00:09.895Z,10.20
2017-12-20T17:02:39.004Z,10.03
2017-12-20T17:05:07.395Z,9.03
2017-12-20T17:07:35.771Z,9.93
2017-12-20T17:10:04.146Z,9.80
2017-12-20T17:12:32.508Z,13.30
2017-12-20T17:15:06.651Z,12.00
2017-12-20T17:17:34.253Z,12.90
2017-12-20T17:20:01.893Z,12.83
2017-12-20T17:22:29.524Z,11.40
2017-12-20T17:24:57.876Z,10.80
2017-12-20T17:27:25.500Z,12.10
2017-12-20T17:29:53.129Z,11.63
2017-12-20T17:32:21.500Z,11.70
2017-12-20T17:34:49.878Z,12.40
2017-12-20T17:37:18.244Z,11.40
2017-12-20T17:39:45.872Z,10.43
2017-12-20T17:42:13.466Z,11.50
2017-12-20T17:44:41.138Z,10.60
2017-12-20T17:47:08.744Z,10.43
2017-12-20T17:52:10.100Z,10.73
2017-12-20T17:54:37.711Z,11.50
2017-12-20T17:57:05.370Z,13.60
2017-12-20T17:59:33.003Z,13.70
2017-12-20T18:02:00.619Z,12.80
2017-12-20T18:04:29.033Z,14.93
2017-12-20T18:07:00.342Z,14.47
2017-12-20T18:09:27.941Z,13.50
2017-12-20T18:11:55.540Z,14.13
2017-12-20T18:14:23.135Z,13.90
2017-12-20T18:16:51.521Z,13.80
2017-12-20T18:19:19.902Z,14.63
2017-12-20T18:21:48.263Z,12.90
2017-12-20T18:24:15.866Z,13.90
2017-12-20T18:26:43.469Z,13.10
2017-12-20T18:29:11.088Z,15.20
2017-12-20T18:31:42.591Z,14.80
2017-12-20T18:34:10.240Z,16.90
2017-12-20T18:36:37.877Z,15.47
2017-12-20T18:39:05.469Z,15.20
2017-12-20T18:41:33.095Z,14.87
2017-12-20T18:44:00.707Z,15.90
2017-12-20T18:46:28.434Z,16.03
2017-12-20T18:48:56.028Z,15.17
2017-12-20T18:51:23.630Z,15.63
2017-12-20T18:53:51.254Z,16.50
2017-12-20T18:56:19.634Z,14.83
2017-12-20T18:58:48.066Z,14.43
2017-12-20T19:01:15.656Z,14.70
2017-12-20T19:03:43.273Z,15.17
2017-12-20T19:06:10.895Z,14.77
2017-12-20T19:08:38.488Z,17.40
2017-12-20T19:11:06.147Z,20.17
2017-12-20T19:13:33.748Z,23.60
2017-12-20T19:16:02.846Z,14.63
2017-12-20T19:18:31.216Z,17.13
2017-12-20T19:20:58.815Z,18.67
2017-12-20T19:23:26.432Z,17.67
2017-12-20T19:25:57.204Z,16.20
2017-12-20T19:28:24.829Z,16.33
2017-12-20T19:30:52.417Z,19.40
2017-12-20T19:33:20.024Z,25.77
2017-12-20T19:35:47.651Z,23.63
2017-12-20T19:38:15.246Z,22.03
2017-12-20T19:40:42.843Z,18.43
2017-12-20T19:43:10.434Z,14.77
2017-12-20T19:48:39.041Z,12.77
2017-12-20T19:51:06.654Z,11.87
2017-12-20T19:53:34.247Z,11.40
2017-12-20T19:59:10.173Z,12.57
2017-12-20T20:01:38.568Z,13.40
2017-12-20T20:04:06.167Z,17.03
2017-12-20T20:06:46.489Z,14.00
2017-12-20T20:09:14.077Z,12.57
2017-12-20T20:11:41.722Z,10.93
2017-12-20T20:14:09.346Z,11.77
2017-12-20T20:19:43.221Z,11.10
2017-12-20T20:22:10.847Z,11.87
2017-12-20T20:27:35.902Z,11.20
2017-12-20T20:30:03.514Z,12.10
2017-12-20T20:32:31.895Z,10.13
2017-12-20T20:35:00.251Z,10.73
2017-12-20T20:37:27.896Z,11.40
2017-12-20T20:39:58.682Z,11.27
2017-12-20T20:42:27.051Z,11.77
2017-12-20T20:44:54.680Z,12.00
2017-12-20T20:47:29.204Z,12.60
2017-12-20T20:49:56.814Z,12.57
2017-12-20T20:52:25.229Z,11.90
2017-12-20T20:54:52.831Z,13.77
2017-12-20T20:57:20.443Z,11.70
2017-12-20T20:59:58.460Z,11.93
2017-12-20T21:02:26.071Z,11.63
2017-12-20T21:04:53.713Z,11.73
2017-12-20T21:07:21.305Z,12.70
2017-12-20T21:09:49.666Z,12.37
2017-12-20T21:12:18.042Z,12.80
2017-12-20T21:14:45.654Z,12.60
2017-12-20T21:17:13.292Z,12.57
2017-12-20T21:19:41.679Z,11.97
2017-12-20T21:22:09.278Z,11.87
2017-12-20T21:24:36.892Z,11.90
2017-12-20T21:27:05.276Z,10.90
2017-12-20T21:29:33.656Z,10.63
2017-12-20T21:32:01.261Z,11.60
2017-12-20T21:34:28.870Z,10.77
2017-12-20T21:36:57.240Z,10.57
2017-12-20T21:39:25.610Z,10.43
2017-12-20T21:41:53.255Z,9.90
2017-12-20T21:44:21.874Z,10.73
2017-12-20T21:46:57.398Z,10.97
2017-12-20T21:49:25.001Z,10.40
2017-12-20T21:51:52.648Z,9.97
2017-12-20T21:54:20.287Z,10.43
2017-12-20T21:56:47.920Z,11.70
2017-12-20T21:59:25.740Z,11.03
2017-12-20T22:01:53.338Z,9.60
2017-12-20T22:04:25.324Z,11.10
2017-12-20T22:06:52.918Z,10.70
2017-12-20T22:09:20.544Z,10.00
2017-12-20T22:11:48.157Z,10.00
2017-12-20T22:14:15.776Z,10.40
2017-12-20T22:16:43.427Z,11.03
2017-12-20T22:19:11.036Z,10.17
2017-12-20T22:21:38.621Z,9.63
2017-12-20T22:24:06.993Z,9.70
2017-12-20T22:26:36.167Z,10.30
2017-12-20T22:29:03.834Z,10.10
2017-12-20T22:31:31.462Z,9.50
2017-12-20T22:33:59.057Z,9.00
2017-12-20T22:36:26.664Z,9.60
2017-12-20T22:38:54.270Z,9.70
2017-12-20T22:41:21.906Z,9.70
2017-12-20T22:43:49.490Z,8.90
2017-12-20T22:46:17.131Z,9.07
2017-12-20T22:48:44.764Z,9.20
2017-12-20T22:51:13.129Z,8.70
2017-12-20T22:53:41.508Z,8.77
2017-12-20T22:56:09.896Z,8.97
2017-12-20T23:01:31.066Z,9.10
2017-12-20T23:03:58.682Z,8.70
2017-12-20T23:06:27.030Z,9.80
2017-12-20T23:08:54.617Z,8.73
2017-12-20T23:11:22.969Z,9.50
2017-12-20T23:13:50.559Z,9.90
2017-12-20T23:16:18.952Z,9.10
2017-12-20T23:18:47.366Z,9.00
2017-12-20T23:21:14.946Z,9.73
2017-12-20T23:23:42.575Z,9.50
2017-12-20T23:26:10.178Z,9.87
2017-12-20T23:28:37.821Z,10.40
2017-12-20T23:31:05.413Z,8.97
2017-12-20T23:33:33.062Z,10.23
2017-12-20T23:36:00.656Z,10.20
2017-12-20T23:38:29.551Z,9.00
2017-12-20T23:40:57.931Z,9.67
2017-12-20T23:43:26.277Z,10.60
2017-12-20T23:45:53.881Z,10.73
2017-12-20T23:48:21.493Z,10.87
2017-12-20T23:50:49.098Z,10.27
2017-12-20T23:53:17.488Z,11.57
2017-12-20T23:55:45.096Z,12.80
2017-12-20T23:58:12.714Z,11.33
